sensor_id;sensor_type;location;lat;lon;timestamp;P1;durP1;ratioP1;P2;durP2;ratioP2
52316;SDS011;38725;41.994;21.458;2022-07-03T00:01:15;11.55;;;7.18;;
52316;SDS011;38725;41.994;21.458;2022-07-03T00:03:42;13.05;;;7.22;;
52316;SDS011;38725;41.994;21.458;2022-07-03T00:06:08;12.43;;;6.78;;
52316;SDS011;38725;41.994;21.458;2022-07-03T00:08:34;12.15;;;6.93;;
52316;SDS011;38725;41.994;21.458;2022-07-03T00:11:00;12.27;;;6.43;;
52316;SDS011;38725;41.994;21.458;2022-07-03T00:13:26;11.13;;;6.93;;
52316;SDS011;38725;41.994;21.458;2022-07-03T00:15:52;11.30;;;7.00;;
52316;SDS011;38725;41.994;21.458;2022-07-03T00:18:19;8.82;;;7.07;;
52316;SDS011;38725;41.994;21.458;2022-07-03T00:20:45;10.13;;;6.97;;
52316;SDS011;38725;41.994;21.458;2022-07-03T00:23:15;10.38;;;7.22;;
52316;SDS011;38725;41.994;21.458;2022-07-03T00:25:42;14.02;;;7.43;;
52316;SDS011;38725;41.994;21.458;2022-07-03T00:28:09;9.15;;;7.15;;
52316;SDS011;38725;41.994;21.458;2022-07-03T00:30:35;9.73;;;6.80;;
52316;SDS011;38725;41.994;21.458;2022-07-03T00:33:02;9.90;;;7.55;;
52316;SDS011;38725;41.994;21.458;2022-07-03T00:35:32;8.65;;;6.60;;
52316;SDS011;38725;41.994;21.458;2022-07-03T00:37:59;9.43;;;7.32;;
52316;SDS011;38725;41.994;21.458;2022-07-03T00:40:25;11.32;;;7.05;;
52316;SDS011;38725;41.994;21.458;2022-07-03T00:42:51;10.43;;;7.40;;
52316;SDS011;38725;41.994;21.458;2022-07-03T00:45:19;12.65;;;7.07;;
52316;SDS011;38725;41.994;21.458;2022-07-03T00:47:45;13.10;;;7.60;;
52316;SDS011;38725;41.994;21.458;2022-07-03T00:50:11;9.82;;;8.10;;
52316;SDS011;38725;41.994;21.458;2022-07-03T00:52:38;11.43;;;8.35;;
52316;SDS011;38725;41.994;21.458;2022-07-03T00:55:08;11.98;;;9.00;;
52316;SDS011;38725;41.994;21.458;2022-07-03T00:57:37;11.73;;;8.90;;
52316;SDS011;38725;41.994;21.458;2022-07-03T01:00:07;14.82;;;9.20;;
52316;SDS011;38725;41.994;21.458;2022-07-03T01:02:38;14.15;;;9.10;;
52316;SDS011;38725;41.994;21.458;2022-07-03T01:05:15;12.13;;;9.93;;
52316;SDS011;38725;41.994;21.458;2022-07-03T01:12:48;12.95;;;9.02;;
52316;SDS011;38725;41.994;21.458;2022-07-03T01:18:13;14.45;;;10.20;;
52316;SDS011;38725;41.994;21.458;2022-07-03T01:20:44;13.63;;;9.80;;
52316;SDS011;38725;41.994;21.458;2022-07-03T01:23:19;12.48;;;9.50;;
52316;SDS011;38725;41.994;21.458;2022-07-03T01:25:46;12.30;;;9.55;;
52316;SDS011;38725;41.994;21.458;2022-07-03T01:28:14;13.95;;;9.63;;
52316;SDS011;38725;41.994;21.458;2022-07-03T01:30:43;12.85;;;9.15;;
52316;SDS011;38725;41.994;21.458;2022-07-03T01:33:11;14.15;;;9.63;;
52316;SDS011;38725;41.994;21.458;2022-07-03T01:35:41;11.68;;;9.18;;
52316;SDS011;38725;41.994;21.458;2022-07-03T01:38:12;15.98;;;9.23;;
52316;SDS011;38725;41.994;21.458;2022-07-03T01:40:39;12.30;;;9.35;;
52316;SDS011;38725;41.994;21.458;2022-07-03T01:43:10;15.20;;;9.68;;
52316;SDS011;38725;41.994;21.458;2022-07-03T01:45:43;15.32;;;9.52;;
52316;SDS011;38725;41.994;21.458;2022-07-03T01:48:10;14.77;;;9.98;;
52316;SDS011;38725;41.994;21.458;2022-07-03T01:50:37;12.82;;;9.25;;
52316;SDS011;38725;41.994;21.458;2022-07-03T01:53:05;15.18;;;9.98;;
52316;SDS011;38725;41.994;21.458;2022-07-03T01:55:32;13.50;;;10.15;;
52316;SDS011;38725;41.994;21.458;2022-07-03T01:57:59;11.85;;;8.82;;
52316;SDS011;38725;41.994;21.458;2022-07-03T02:00:25;17.50;;;10.77;;
52316;SDS011;38725;41.994;21.458;2022-07-03T02:05:38;17.80;;;9.90;;
52316;SDS011;38725;41.994;21.458;2022-07-03T02:08:11;13.48;;;9.50;;
52316;SDS011;38725;41.994;21.458;2022-07-03T02:10:41;12.77;;;10.15;;
52316;SDS011;38725;41.994;21.458;2022-07-03T02:13:24;12.48;;;9.30;;
52316;SDS011;38725;41.994;21.458;2022-07-03T02:15:53;13.23;;;8.45;;
52316;SDS011;38725;41.994;21.458;2022-07-03T02:20:46;15.63;;;9.32;;
52316;SDS011;38725;41.994;21.458;2022-07-03T02:23:16;12.75;;;8.82;;
52316;SDS011;38725;41.994;21.458;2022-07-03T02:25:46;12.30;;;9.00;;
52316;SDS011;38725;41.994;21.458;2022-07-03T02:28:22;15.02;;;9.13;;
52316;SDS011;38725;41.994;21.458;2022-07-03T02:30:51;12.80;;;9.18;;
52316;SDS011;38725;41.994;21.458;2022-07-03T02:33:27;11.43;;;8.95;;
52316;SDS011;38725;41.994;21.458;2022-07-03T02:35:55;12.63;;;9.25;;
52316;SDS011;38725;41.994;21.458;2022-07-03T02:38:22;13.35;;;9.63;;
52316;SDS011;38725;41.994;21.458;2022-07-03T02:46:14;12.43;;;8.88;;
52316;SDS011;38725;41.994;21.458;2022-07-03T02:49:02;9.93;;;8.73;;
52316;SDS011;38725;41.994;21.458;2022-07-03T02:51:35;12.73;;;9.13;;
52316;SDS011;38725;41.994;21.458;2022-07-03T02:54:04;21.17;;;10.77;;
52316;SDS011;38725;41.994;21.458;2022-07-03T02:56:36;19.30;;;10.02;;
52316;SDS011;38725;41.994;21.458;2022-07-03T03:02:13;13.63;;;9.27;;
52316;SDS011;38725;41.994;21.458;2022-07-03T03:04:41;14.43;;;9.98;;
52316;SDS011;38725;41.994;21.458;2022-07-03T03:07:16;15.82;;;9.13;;
52316;SDS011;38725;41.994;21.458;2022-07-03T03:09:44;12.82;;;10.55;;
52316;SDS011;38725;41.994;21.458;2022-07-03T03:12:11;13.68;;;9.93;;
52316;SDS011;38725;41.994;21.458;2022-07-03T03:14:39;12.30;;;9.15;;
52316;SDS011;38725;41.994;21.458;2022-07-03T03:17:06;12.43;;;9.30;;
52316;SDS011;38725;41.994;21.458;2022-07-03T03:19:36;13.35;;;9.70;;
52316;SDS011;38725;41.994;21.458;2022-07-03T03:24:28;16.10;;;9.38;;
52316;SDS011;38725;41.994;21.458;2022-07-03T03:26:56;16.40;;;9.75;;
52316;SDS011;38725;41.994;21.458;2022-07-03T03:29:23;12.32;;;9.55;;
52316;SDS011;38725;41.994;21.458;2022-07-03T03:31:49;15.98;;;9.73;;
52316;SDS011;38725;41.994;21.458;2022-07-03T03:34:16;13.20;;;9.85;;
52316;SDS011;38725;41.994;21.458;2022-07-03T03:36:43;15.70;;;10.45;;
52316;SDS011;38725;41.994;21.458;2022-07-03T03:39:09;15.68;;;10.48;;
52316;SDS011;38725;41.994;21.458;2022-07-03T03:41:36;12.65;;;9.40;;
52316;SDS011;38725;41.994;21.458;2022-07-03T03:44:02;16.48;;;9.90;;
52316;SDS011;38725;41.994;21.458;2022-07-03T03:46:28;15.23;;;9.77;;
52316;SDS011;38725;41.994;21.458;2022-07-03T03:48:54;15.85;;;9.70;;
52316;SDS011;38725;41.994;21.458;2022-07-03T03:51:20;14.35;;;9.40;;
52316;SDS011;38725;41.994;21.458;2022-07-03T03:53:46;15.85;;;10.25;;
52316;SDS011;38725;41.994;21.458;2022-07-03T03:56:13;14.48;;;9.38;;
52316;SDS011;38725;41.994;21.458;2022-07-03T03:58:42;17.45;;;9.20;;
52316;SDS011;38725;41.994;21.458;2022-07-03T04:01:09;16.33;;;9.90;;
52316;SDS011;38725;41.994;21.458;2022-07-03T04:03:35;14.77;;;10.02;;
52316;SDS011;38725;41.994;21.458;2022-07-03T04:06:02;11.80;;;9.80;;
52316;SDS011;38725;41.994;21.458;2022-07-03T04:08:29;13.02;;;9.63;;
52316;SDS011;38725;41.994;21.458;2022-07-03T04:10:55;14.88;;;10.40;;
52316;SDS011;38725;41.994;21.458;2022-07-03T04:13:21;16.45;;;10.60;;
52316;SDS011;38725;41.994;21.458;2022-07-03T04:15:48;23.45;;;10.50;;
52316;SDS011;38725;41.994;21.458;2022-07-03T04:18:14;14.07;;;10.43;;
52316;SDS011;38725;41.994;21.458;2022-07-03T04:20:41;13.23;;;10.52;;
52316;SDS011;38725;41.994;21.458;2022-07-03T04:23:07;15.45;;;9.93;;
52316;SDS011;38725;41.994;21.458;2022-07-03T04:25:33;14.23;;;10.88;;
52316;SDS011;38725;41.994;21.458;2022-07-03T04:28:00;15.90;;;11.25;;
52316;SDS011;38725;41.994;21.458;2022-07-03T04:30:26;14.38;;;10.85;;
52316;SDS011;38725;41.994;21.458;2022-07-03T04:32:52;15.95;;;11.45;;
52316;SDS011;38725;41.994;21.458;2022-07-03T04:35:19;20.35;;;11.45;;
52316;SDS011;38725;41.994;21.458;2022-07-03T04:37:45;14.52;;;10.68;;
52316;SDS011;38725;41.994;21.458;2022-07-03T04:40:11;15.55;;;10.95;;
52316;SDS011;38725;41.994;21.458;2022-07-03T04:42:38;16.60;;;10.80;;
52316;SDS011;38725;41.994;21.458;2022-07-03T04:45:05;15.40;;;11.65;;
52316;SDS011;38725;41.994;21.458;2022-07-03T04:47:32;15.50;;;10.30;;
52316;SDS011;38725;41.994;21.458;2022-07-03T04:49:58;18.75;;;10.48;;
52316;SDS011;38725;41.994;21.458;2022-07-03T04:52:24;15.90;;;10.25;;
52316;SDS011;38725;41.994;21.458;2022-07-03T04:54:50;14.70;;;10.40;;
52316;SDS011;38725;41.994;21.458;2022-07-03T04:57:16;14.60;;;10.70;;
52316;SDS011;38725;41.994;21.458;2022-07-03T04:59:42;18.23;;;10.75;;
52316;SDS011;38725;41.994;21.458;2022-07-03T05:02:09;13.68;;;10.82;;
52316;SDS011;38725;41.994;21.458;2022-07-03T05:04:35;17.88;;;11.40;;
52316;SDS011;38725;41.994;21.458;2022-07-03T05:07:01;16.10;;;11.60;;
52316;SDS011;38725;41.994;21.458;2022-07-03T05:09:27;15.77;;;11.73;;
52316;SDS011;38725;41.994;21.458;2022-07-03T05:11:53;18.40;;;11.52;;
52316;SDS011;38725;41.994;21.458;2022-07-03T05:14:19;17.35;;;11.25;;
52316;SDS011;38725;41.994;21.458;2022-07-03T05:16:46;16.08;;;11.05;;
52316;SDS011;38725;41.994;21.458;2022-07-03T05:19:12;17.23;;;11.35;;
52316;SDS011;38725;41.994;21.458;2022-07-03T05:21:38;15.13;;;11.05;;
52316;SDS011;38725;41.994;21.458;2022-07-03T05:24:04;18.10;;;10.27;;
52316;SDS011;38725;41.994;21.458;2022-07-03T05:26:30;19.60;;;10.68;;
52316;SDS011;38725;41.994;21.458;2022-07-03T05:28:56;17.15;;;9.93;;
52316;SDS011;38725;41.994;21.458;2022-07-03T05:31:22;15.02;;;9.98;;
52316;SDS011;38725;41.994;21.458;2022-07-03T05:33:49;13.13;;;9.82;;
52316;SDS011;38725;41.994;21.458;2022-07-03T05:36:15;16.25;;;9.48;;
52316;SDS011;38725;41.994;21.458;2022-07-03T05:38:41;15.77;;;10.18;;
52316;SDS011;38725;41.994;21.458;2022-07-03T05:41:26;14.45;;;9.15;;
52316;SDS011;38725;41.994;21.458;2022-07-03T05:43:52;15.77;;;10.05;;
52316;SDS011;38725;41.994;21.458;2022-07-03T05:46:18;16.33;;;10.38;;
52316;SDS011;38725;41.994;21.458;2022-07-03T05:48:44;18.83;;;9.95;;
52316;SDS011;38725;41.994;21.458;2022-07-03T05:51:10;14.63;;;9.85;;
52316;SDS011;38725;41.994;21.458;2022-07-03T05:53:36;14.85;;;10.20;;
52316;SDS011;38725;41.994;21.458;2022-07-03T05:56:02;14.95;;;10.25;;
52316;SDS011;38725;41.994;21.458;2022-07-03T05:58:29;19.15;;;8.85;;
52316;SDS011;38725;41.994;21.458;2022-07-03T06:00:55;15.10;;;9.60;;
52316;SDS011;38725;41.994;21.458;2022-07-03T06:03:21;15.73;;;9.32;;
52316;SDS011;38725;41.994;21.458;2022-07-03T06:05:47;15.20;;;9.88;;
52316;SDS011;38725;41.994;21.458;2022-07-03T06:08:13;16.75;;;10.75;;
52316;SDS011;38725;41.994;21.458;2022-07-03T06:10:39;14.90;;;10.23;;
52316;SDS011;38725;41.994;21.458;2022-07-03T06:13:05;12.07;;;9.80;;
52316;SDS011;38725;41.994;21.458;2022-07-03T06:15:32;14.73;;;10.00;;
52316;SDS011;38725;41.994;21.458;2022-07-03T06:17:58;15.82;;;9.80;;
52316;SDS011;38725;41.994;21.458;2022-07-03T06:20:24;16.92;;;9.90;;
52316;SDS011;38725;41.994;21.458;2022-07-03T06:22:50;12.98;;;9.10;;
52316;SDS011;38725;41.994;21.458;2022-07-03T06:25:16;15.57;;;9.90;;
52316;SDS011;38725;41.994;21.458;2022-07-03T06:27:42;12.00;;;9.50;;
52316;SDS011;38725;41.994;21.458;2022-07-03T06:30:08;19.80;;;10.45;;
52316;SDS011;38725;41.994;21.458;2022-07-03T06:32:35;15.85;;;9.27;;
52316;SDS011;38725;41.994;21.458;2022-07-03T06:35:01;13.57;;;9.10;;
52316;SDS011;38725;41.994;21.458;2022-07-03T06:37:27;13.85;;;8.20;;
52316;SDS011;38725;41.994;21.458;2022-07-03T06:39:53;13.93;;;9.15;;
52316;SDS011;38725;41.994;21.458;2022-07-03T06:42:19;26.00;;;9.48;;
52316;SDS011;38725;41.994;21.458;2022-07-03T06:44:46;10.88;;;9.02;;
52316;SDS011;38725;41.994;21.458;2022-07-03T06:47:12;13.07;;;9.02;;
52316;SDS011;38725;41.994;21.458;2022-07-03T06:49:38;14.43;;;8.55;;
52316;SDS011;38725;41.994;21.458;2022-07-03T06:52:04;13.80;;;7.63;;
52316;SDS011;38725;41.994;21.458;2022-07-03T06:54:30;9.57;;;7.30;;
52316;SDS011;38725;41.994;21.458;2022-07-03T06:56:56;9.50;;;6.82;;
52316;SDS011;38725;41.994;21.458;2022-07-03T06:59:23;12.77;;;7.30;;
52316;SDS011;38725;41.994;21.458;2022-07-03T07:01:49;10.10;;;7.35;;
52316;SDS011;38725;41.994;21.458;2022-07-03T07:04:15;8.70;;;7.05;;
52316;SDS011;38725;41.994;21.458;2022-07-03T07:06:41;9.65;;;7.60;;
52316;SDS011;38725;41.994;21.458;2022-07-03T07:09:07;9.35;;;7.20;;
52316;SDS011;38725;41.994;21.458;2022-07-03T07:11:33;9.77;;;7.45;;
52316;SDS011;38725;41.994;21.458;2022-07-03T07:13:59;9.30;;;7.45;;
52316;SDS011;38725;41.994;21.458;2022-07-03T07:16:25;12.82;;;8.10;;
52316;SDS011;38725;41.994;21.458;2022-07-03T07:18:52;10.23;;;8.07;;
52316;SDS011;38725;41.994;21.458;2022-07-03T07:21:18;12.48;;;7.93;;
52316;SDS011;38725;41.994;21.458;2022-07-03T07:23:44;11.63;;;8.05;;
52316;SDS011;38725;41.994;21.458;2022-07-03T07:26:10;9.88;;;7.65;;
52316;SDS011;38725;41.994;21.458;2022-07-03T07:28:37;9.60;;;7.43;;
52316;SDS011;38725;41.994;21.458;2022-07-03T07:31:03;9.82;;;7.47;;
52316;SDS011;38725;41.994;21.458;2022-07-03T07:33:29;12.52;;;7.70;;
52316;SDS011;38725;41.994;21.458;2022-07-03T07:35:55;9.13;;;6.95;;
52316;SDS011;38725;41.994;21.458;2022-07-03T07:38:21;11.77;;;6.50;;
52316;SDS011;38725;41.994;21.458;2022-07-03T07:40:48;7.65;;;6.43;;
52316;SDS011;38725;41.994;21.458;2022-07-03T07:43:14;10.35;;;6.45;;
52316;SDS011;38725;41.994;21.458;2022-07-03T07:45:40;11.57;;;6.60;;
52316;SDS011;38725;41.994;21.458;2022-07-03T07:48:06;8.77;;;6.90;;
52316;SDS011;38725;41.994;21.458;2022-07-03T07:50:32;11.25;;;6.60;;
52316;SDS011;38725;41.994;21.458;2022-07-03T07:52:58;10.18;;;6.53;;
52316;SDS011;38725;41.994;21.458;2022-07-03T07:55:24;10.52;;;6.22;;
52316;SDS011;38725;41.994;21.458;2022-07-03T07:57:50;10.07;;;5.57;;
52316;SDS011;38725;41.994;21.458;2022-07-03T08:00:17;7.28;;;5.25;;
52316;SDS011;38725;41.994;21.458;2022-07-03T08:02:44;8.45;;;5.70;;
52316;SDS011;38725;41.994;21.458;2022-07-03T08:05:29;6.85;;;5.50;;
52316;SDS011;38725;41.994;21.458;2022-07-03T08:08:08;8.30;;;5.38;;
52316;SDS011;38725;41.994;21.458;2022-07-03T08:10:55;9.15;;;5.72;;
52316;SDS011;38725;41.994;21.458;2022-07-03T08:13:20;10.93;;;5.90;;
52316;SDS011;38725;41.994;21.458;2022-07-03T08:15:47;6.90;;;5.90;;
52316;SDS011;38725;41.994;21.458;2022-07-03T08:18:13;8.73;;;5.68;;
52316;SDS011;38725;41.994;21.458;2022-07-03T08:20:39;8.70;;;6.07;;
52316;SDS011;38725;41.994;21.458;2022-07-03T08:23:05;7.97;;;5.40;;
52316;SDS011;38725;41.994;21.458;2022-07-03T08:25:32;7.13;;;5.85;;
52316;SDS011;38725;41.994;21.458;2022-07-03T08:27:58;8.95;;;5.57;;
52316;SDS011;38725;41.994;21.458;2022-07-03T08:30:25;7.05;;;5.53;;
52316;SDS011;38725;41.994;21.458;2022-07-03T08:32:53;9.82;;;5.20;;
52316;SDS011;38725;41.994;21.458;2022-07-03T08:35:19;5.80;;;4.90;;
52316;SDS011;38725;41.994;21.458;2022-07-03T08:37:45;6.28;;;4.80;;
52316;SDS011;38725;41.994;21.458;2022-07-03T08:40:16;7.47;;;4.72;;
52316;SDS011;38725;41.994;21.458;2022-07-03T08:42:44;6.80;;;4.63;;
52316;SDS011;38725;41.994;21.458;2022-07-03T08:45:15;6.45;;;5.05;;
52316;SDS011;38725;41.994;21.458;2022-07-03T08:47:42;6.22;;;4.65;;
52316;SDS011;38725;41.994;21.458;2022-07-03T08:50:08;6.22;;;4.57;;
52316;SDS011;38725;41.994;21.458;2022-07-03T08:52:35;9.32;;;4.90;;
52316;SDS011;38725;41.994;21.458;2022-07-03T08:55:02;8.82;;;5.30;;
52316;SDS011;38725;41.994;21.458;2022-07-03T08:57:30;8.50;;;5.13;;
52316;SDS011;38725;41.994;21.458;2022-07-03T08:59:56;14.05;;;5.10;;
52316;SDS011;38725;41.994;21.458;2022-07-03T09:02:23;7.72;;;4.68;;
52316;SDS011;38725;41.994;21.458;2022-07-03T09:04:49;7.63;;;5.05;;
52316;SDS011;38725;41.994;21.458;2022-07-03T09:07:15;6.80;;;4.63;;
52316;SDS011;38725;41.994;21.458;2022-07-03T09:09:43;11.07;;;5.10;;
52316;SDS011;38725;41.994;21.458;2022-07-03T09:12:09;8.30;;;4.85;;
52316;SDS011;38725;41.994;21.458;2022-07-03T09:14:36;5.20;;;4.68;;
52316;SDS011;38725;41.994;21.458;2022-07-03T09:17:02;7.30;;;4.80;;
52316;SDS011;38725;41.994;21.458;2022-07-03T09:19:41;6.28;;;4.78;;
52316;SDS011;38725;41.994;21.458;2022-07-03T09:22:28;6.85;;;4.65;;
52316;SDS011;38725;41.994;21.458;2022-07-03T09:25:03;4.97;;;4.50;;
52316;SDS011;38725;41.994;21.458;2022-07-03T09:27:29;9.30;;;4.13;;
52316;SDS011;38725;41.994;21.458;2022-07-03T09:30:08;5.95;;;4.28;;
52316;SDS011;38725;41.994;21.458;2022-07-03T09:37:40;6.80;;;4.32;;
52316;SDS011;38725;41.994;21.458;2022-07-03T09:40:07;4.93;;;3.83;;
52316;SDS011;38725;41.994;21.458;2022-07-03T09:42:33;7.10;;;4.32;;
52316;SDS011;38725;41.994;21.458;2022-07-03T09:44:59;4.30;;;3.90;;
52316;SDS011;38725;41.994;21.458;2022-07-03T09:47:25;7.47;;;4.18;;
52316;SDS011;38725;41.994;21.458;2022-07-03T09:49:56;4.70;;;4.30;;
52316;SDS011;38725;41.994;21.458;2022-07-03T09:52:27;4.57;;;4.18;;
52316;SDS011;38725;41.994;21.458;2022-07-03T09:54:54;5.68;;;3.78;;
52316;SDS011;38725;41.994;21.458;2022-07-03T09:57:21;6.28;;;3.83;;
52316;SDS011;38725;41.994;21.458;2022-07-03T09:59:48;4.13;;;3.80;;
52316;SDS011;38725;41.994;21.458;2022-07-03T10:02:14;5.78;;;3.55;;
52316;SDS011;38725;41.994;21.458;2022-07-03T10:04:40;4.22;;;3.60;;
52316;SDS011;38725;41.994;21.458;2022-07-03T10:07:06;5.93;;;3.80;;
52316;SDS011;38725;41.994;21.458;2022-07-03T10:09:34;6.55;;;3.42;;
52316;SDS011;38725;41.994;21.458;2022-07-03T10:12:01;4.43;;;3.15;;
52316;SDS011;38725;41.994;21.458;2022-07-03T10:14:28;5.53;;;3.30;;
52316;SDS011;38725;41.994;21.458;2022-07-03T10:16:55;5.95;;;3.22;;
52316;SDS011;38725;41.994;21.458;2022-07-03T10:19:25;6.80;;;3.33;;
52316;SDS011;38725;41.994;21.458;2022-07-03T10:21:53;5.43;;;3.90;;
52316;SDS011;38725;41.994;21.458;2022-07-03T10:24:25;4.80;;;3.70;;
52316;SDS011;38725;41.994;21.458;2022-07-03T10:26:52;5.70;;;3.83;;
52316;SDS011;38725;41.994;21.458;2022-07-03T10:29:22;5.40;;;3.30;;
52316;SDS011;38725;41.994;21.458;2022-07-03T10:31:48;4.32;;;3.50;;
52316;SDS011;38725;41.994;21.458;2022-07-03T10:34:21;7.90;;;3.60;;
52316;SDS011;38725;41.994;21.458;2022-07-03T10:36:51;5.32;;;3.78;;
52316;SDS011;38725;41.994;21.458;2022-07-03T10:39:20;4.50;;;3.75;;
52316;SDS011;38725;41.994;21.458;2022-07-03T10:41:50;4.22;;;3.83;;
52316;SDS011;38725;41.994;21.458;2022-07-03T10:44:35;5.45;;;3.92;;
52316;SDS011;38725;41.994;21.458;2022-07-03T10:50:01;6.00;;;3.97;;
52316;SDS011;38725;41.994;21.458;2022-07-03T10:52:27;7.55;;;4.53;;
52316;SDS011;38725;41.994;21.458;2022-07-03T10:54:54;4.38;;;3.92;;
52316;SDS011;38725;41.994;21.458;2022-07-03T10:57:22;7.28;;;4.75;;
52316;SDS011;38725;41.994;21.458;2022-07-03T11:02:26;5.35;;;4.03;;
52316;SDS011;38725;41.994;21.458;2022-07-03T11:07:43;5.97;;;4.75;;
52316;SDS011;38725;41.994;21.458;2022-07-03T11:13:24;5.47;;;4.07;;
52316;SDS011;38725;41.994;21.458;2022-07-03T11:18:07;4.68;;;4.05;;
52316;SDS011;38725;41.994;21.458;2022-07-03T11:20:46;6.80;;;4.57;;
52316;SDS011;38725;41.994;21.458;2022-07-03T11:25:55;5.30;;;3.90;;
52316;SDS011;38725;41.994;21.458;2022-07-03T11:36:11;4.88;;;4.20;;
52316;SDS011;38725;41.994;21.458;2022-07-03T11:38:37;6.53;;;4.18;;
52316;SDS011;38725;41.994;21.458;2022-07-03T11:41:06;8.57;;;4.90;;
52316;SDS011;38725;41.994;21.458;2022-07-03T11:43:32;6.97;;;4.55;;
52316;SDS011;38725;41.994;21.458;2022-07-03T11:45:59;6.43;;;4.68;;
52316;SDS011;38725;41.994;21.458;2022-07-03T11:48:26;5.65;;;4.28;;
52316;SDS011;38725;41.994;21.458;2022-07-03T11:50:52;7.47;;;4.07;;
52316;SDS011;38725;41.994;21.458;2022-07-03T11:53:19;6.88;;;4.43;;
52316;SDS011;38725;41.994;21.458;2022-07-03T11:55:49;5.65;;;4.28;;
52316;SDS011;38725;41.994;21.458;2022-07-03T11:58:15;6.85;;;4.47;;
52316;SDS011;38725;41.994;21.458;2022-07-03T12:00:42;5.78;;;4.38;;
52316;SDS011;38725;41.994;21.458;2022-07-03T12:03:08;4.45;;;4.05;;
52316;SDS011;38725;41.994;21.458;2022-07-03T12:05:35;4.78;;;4.20;;
52316;SDS011;38725;41.994;21.458;2022-07-03T12:08:04;5.05;;;4.57;;
52316;SDS011;38725;41.994;21.458;2022-07-03T12:10:37;4.90;;;4.30;;
52316;SDS011;38725;41.994;21.458;2022-07-03T12:13:03;5.07;;;4.57;;
52316;SDS011;38725;41.994;21.458;2022-07-03T12:15:29;4.70;;;3.90;;
52316;SDS011;38725;41.994;21.458;2022-07-03T12:17:56;7.03;;;4.53;;
52316;SDS011;38725;41.994;21.458;2022-07-03T12:20:22;7.55;;;3.83;;
52316;SDS011;38725;41.994;21.458;2022-07-03T12:22:48;5.30;;;4.18;;
52316;SDS011;38725;41.994;21.458;2022-07-03T12:25:14;5.82;;;4.15;;
52316;SDS011;38725;41.994;21.458;2022-07-03T12:27:44;4.60;;;4.20;;
52316;SDS011;38725;41.994;21.458;2022-07-03T12:30:11;9.40;;;4.70;;
52316;SDS011;38725;41.994;21.458;2022-07-03T12:32:38;6.53;;;4.30;;
52316;SDS011;38725;41.994;21.458;2022-07-03T12:35:05;6.43;;;4.13;;
52316;SDS011;38725;41.994;21.458;2022-07-03T12:37:38;8.63;;;4.55;;
52316;SDS011;38725;41.994;21.458;2022-07-03T12:40:10;6.50;;;4.20;;
52316;SDS011;38725;41.994;21.458;2022-07-03T12:45:10;5.32;;;4.40;;
52316;SDS011;38725;41.994;21.458;2022-07-03T12:47:36;6.00;;;4.57;;
52316;SDS011;38725;41.994;21.458;2022-07-03T12:50:04;8.85;;;4.32;;
52316;SDS011;38725;41.994;21.458;2022-07-03T12:52:31;6.95;;;5.03;;
52316;SDS011;38725;41.994;21.458;2022-07-03T12:54:58;4.22;;;3.83;;
52316;SDS011;38725;41.994;21.458;2022-07-03T12:57:25;5.18;;;4.03;;
52316;SDS011;38725;41.994;21.458;2022-07-03T13:00:10;4.47;;;4.00;;
52316;SDS011;38725;41.994;21.458;2022-07-03T13:02:38;4.85;;;3.83;;
52316;SDS011;38725;41.994;21.458;2022-07-03T13:05:15;3.97;;;3.58;;
52316;SDS011;38725;41.994;21.458;2022-07-03T13:07:41;5.28;;;4.13;;
52316;SDS011;38725;41.994;21.458;2022-07-03T13:10:08;4.13;;;3.78;;
52316;SDS011;38725;41.994;21.458;2022-07-03T13:12:34;5.82;;;4.07;;
52316;SDS011;38725;41.994;21.458;2022-07-03T13:15:01;4.80;;;3.80;;
52316;SDS011;38725;41.994;21.458;2022-07-03T13:20:11;5.63;;;4.07;;
52316;SDS011;38725;41.994;21.458;2022-07-03T13:22:37;5.32;;;3.88;;
52316;SDS011;38725;41.994;21.458;2022-07-03T13:25:03;6.35;;;4.40;;
52316;SDS011;38725;41.994;21.458;2022-07-03T13:27:30;4.55;;;4.15;;
52316;SDS011;38725;41.994;21.458;2022-07-03T13:29:56;4.90;;;4.45;;
52316;SDS011;38725;41.994;21.458;2022-07-03T13:32:22;4.13;;;3.65;;
52316;SDS011;38725;41.994;21.458;2022-07-03T13:34:48;5.22;;;4.05;;
52316;SDS011;38725;41.994;21.458;2022-07-03T13:37:14;6.20;;;4.13;;
52316;SDS011;38725;41.994;21.458;2022-07-03T13:39:40;5.47;;;3.55;;
52316;SDS011;38725;41.994;21.458;2022-07-03T13:42:06;5.18;;;3.95;;
52316;SDS011;38725;41.994;21.458;2022-07-03T13:44:35;7.72;;;3.60;;
52316;SDS011;38725;41.994;21.458;2022-07-03T13:49:52;3.40;;;3.10;;
52316;SDS011;38725;41.994;21.458;2022-07-03T13:52:18;4.60;;;3.30;;
52316;SDS011;38725;41.994;21.458;2022-07-03T13:54:44;4.43;;;3.40;;
52316;SDS011;38725;41.994;21.458;2022-07-03T13:57:11;4.05;;;3.30;;
52316;SDS011;38725;41.994;21.458;2022-07-03T13:59:37;3.78;;;3.15;;
52316;SDS011;38725;41.994;21.458;2022-07-03T14:02:03;7.68;;;3.30;;
52316;SDS011;38725;41.994;21.458;2022-07-03T14:04:29;5.85;;;3.22;;
52316;SDS011;38725;41.994;21.458;2022-07-03T14:06:56;7.43;;;3.63;;
52316;SDS011;38725;41.994;21.458;2022-07-03T14:09:23;5.80;;;3.85;;
52316;SDS011;38725;41.994;21.458;2022-07-03T14:11:49;5.47;;;3.65;;
52316;SDS011;38725;41.994;21.458;2022-07-03T14:14:16;8.63;;;4.50;;
52316;SDS011;38725;41.994;21.458;2022-07-03T14:16:42;6.85;;;4.45;;
52316;SDS011;38725;41.994;21.458;2022-07-03T14:19:08;6.32;;;4.40;;
52316;SDS011;38725;41.994;21.458;2022-07-03T14:21:34;5.75;;;4.68;;
52316;SDS011;38725;41.994;21.458;2022-07-03T14:24:00;10.52;;;5.82;;
52316;SDS011;38725;41.994;21.458;2022-07-03T14:26:26;6.95;;;5.80;;
52316;SDS011;38725;41.994;21.458;2022-07-03T14:29:11;9.55;;;6.00;;
52316;SDS011;38725;41.994;21.458;2022-07-03T14:31:56;8.98;;;6.68;;
52316;SDS011;38725;41.994;21.458;2022-07-03T14:34:41;8.20;;;6.05;;
52316;SDS011;38725;41.994;21.458;2022-07-03T14:37:07;7.60;;;5.97;;
52316;SDS011;38725;41.994;21.458;2022-07-03T14:39:35;8.60;;;5.80;;
52316;SDS011;38725;41.994;21.458;2022-07-03T14:42:01;6.50;;;5.80;;
52316;SDS011;38725;41.994;21.458;2022-07-03T14:44:28;7.03;;;6.03;;
52316;SDS011;38725;41.994;21.458;2022-07-03T14:46:54;11.48;;;5.75;;
52316;SDS011;38725;41.994;21.458;2022-07-03T14:49:21;7.10;;;5.95;;
52316;SDS011;38725;41.994;21.458;2022-07-03T14:51:47;9.18;;;5.72;;
52316;SDS011;38725;41.994;21.458;2022-07-03T14:54:17;11.55;;;6.95;;
52316;SDS011;38725;41.994;21.458;2022-07-03T14:56:53;6.63;;;5.32;;
52316;SDS011;38725;41.994;21.458;2022-07-03T14:59:24;13.50;;;7.65;;
52316;SDS011;38725;41.994;21.458;2022-07-03T15:01:54;7.28;;;6.57;;
52316;SDS011;38725;41.994;21.458;2022-07-03T15:06:57;6.70;;;5.90;;
52316;SDS011;38725;41.994;21.458;2022-07-03T15:09:32;6.88;;;5.82;;
52316;SDS011;38725;41.994;21.458;2022-07-03T15:11:59;9.82;;;5.90;;
52316;SDS011;38725;41.994;21.458;2022-07-03T15:14:44;9.27;;;6.03;;
52316;SDS011;38725;41.994;21.458;2022-07-03T15:17:12;10.63;;;5.82;;
52316;SDS011;38725;41.994;21.458;2022-07-03T15:19:38;12.40;;;6.43;;
52316;SDS011;38725;41.994;21.458;2022-07-03T15:22:06;6.85;;;6.05;;
52316;SDS011;38725;41.994;21.458;2022-07-03T15:24:35;7.65;;;5.95;;
52316;SDS011;38725;41.994;21.458;2022-07-03T15:27:02;8.25;;;6.15;;
52316;SDS011;38725;41.994;21.458;2022-07-03T15:29:30;7.50;;;6.47;;
52316;SDS011;38725;41.994;21.458;2022-07-03T15:32:00;9.27;;;6.10;;
52316;SDS011;38725;41.994;21.458;2022-07-03T15:34:26;7.72;;;6.03;;